Time;durP1;ratioP1;P1;durP2;ratioP2;P2;SDS_P1;SDS_P2;PMS_P1;PMS_P2;Temp;Humidity;BMP_temperature;BMP_pressure;BME280_temperature;BME280_humidity;BME280_pressure;Samples;Min_cycle;Max_cycle;Signal;HPM_P1;HPM_P2
2024/01/19 00:01:53;;;;;;;6.13;3.35;;;0.10;99.90;;;;;;5099965;28;20088;-34
2024/01/19 00:04:18;;;;;;;4.15;3.67;;;0.10;99.90;;;;;;5100393;28;20466;-34
2024/01/19 00:06:44;;;;;;;5.15;3.22;;;0.10;99.90;;;;;;5100089;28;20023;-32
2024/01/19 00:09:10;;;;;;;3.75;2.95;;;0.00;99.90;;;;;;5100317;28;20034;-33
2024/01/19 00:11:36;;;;;;;5.18;2.55;;;0.00;99.90;;;;;;5100449;28;20043;-33
2024/01/19 00:14:02;;;;;;;6.38;2.67;;;0.00;99.90;;;;;;5099951;28;20031;-34
2024/01/19 00:16:30;;;;;;;3.38;2.67;;;0.00;99.90;;;;;;5100300;28;20048;-35
2024/01/19 00:18:57;;;;;;;4.40;3.22;;;-0.10;99.90;;;;;;5098818;28;20020;-35
2024/01/19 00:21:23;;;;;;;3.80;2.95;;;0.00;99.90;;;;;;5099228;28;20031;-35
2024/01/19 00:23:49;;;;;;;5.53;3.03;;;0.00;99.90;;;;;;5100895;28;20020;-36
2024/01/19 00:26:15;;;;;;;3.88;2.72;;;0.00;99.90;;;;;;5100692;28;20042;-34
2024/01/19 00:28:41;;;;;;;4.32;3.20;;;0.00;99.90;;;;;;5100286;28;20391;-34
2024/01/19 00:31:07;;;;;;;6.75;3.40;;;0.00;99.90;;;;;;5100352;28;20020;-33
2024/01/19 00:33:33;;;;;;;4.38;3.05;;;0.00;99.90;;;;;;5100388;28;20050;-34
2024/01/19 00:35:58;;;;;;;4.45;2.55;;;0.00;99.90;;;;;;5099541;28;20027;-32
2024/01/19 00:38:24;;;;;;;5.35;3.25;;;-0.10;99.90;;;;;;5099888;28;20116;-36
2024/01/19 00:40:49;;;;;;;3.67;2.95;;;-0.10;99.90;;;;;;5099291;28;20023;-33
2024/01/19 00:43:15;;;;;;;3.80;3.15;;;-0.10;99.90;;;;;;5098906;28;20023;-36
2024/01/19 00:45:40;;;;;;;3.97;2.83;;;-0.10;99.90;;;;;;5099224;28;20019;-32
2024/01/19 00:48:06;;;;;;;6.03;3.30;;;-0.10;99.90;;;;;;5100068;28;20553;-33
2024/01/19 00:50:32;;;;;;;5.60;2.92;;;0.00;99.90;;;;;;5099003;28;20020;-32
2024/01/19 00:52:57;;;;;;;3.80;2.90;;;0.10;99.90;;;;;;5100133;28;20032;-37
2024/01/19 00:55:23;;;;;;;5.10;2.88;;;0.20;99.90;;;;;;5099725;28;20020;-35
2024/01/19 00:57:49;;;;;;;7.80;3.05;;;0.30;99.90;;;;;;5098889;28;20030;-34
2024/01/19 01:00:15;;;;;;;3.75;2.55;;;0.50;99.90;;;;;;5099767;28;20016;-37
2024/01/19 01:02:40;;;;;;;4.53;2.10;;;0.60;99.90;;;;;;5096484;28;20016;-36
2024/01/19 01:05:06;;;;;;;2.95;2.08;;;0.70;99.90;;;;;;5098710;28;20019;-34
2024/01/19 01:07:32;;;;;;;4.40;2.20;;;0.70;99.90;;;;;;5098840;28;20024;-38
2024/01/19 01:09:57;;;;;;;3.75;2.30;;;0.80;99.90;;;;;;5097242;28;20043;-34
2024/01/19 01:12:23;;;;;;;3.00;2.00;;;0.80;99.90;;;;;;5099073;28;20470;-34
2024/01/19 01:14:48;;;;;;;3.80;1.98;;;0.80;99.90;;;;;;5099790;28;20020;-37
2024/01/19 01:17:14;;;;;;;4.22;2.10;;;0.80;99.90;;;;;;5098508;28;20020;-36
2024/01/19 01:19:40;;;;;;;3.42;1.77;;;0.80;99.90;;;;;;5099563;28;20406;-35
2024/01/19 01:22:06;;;;;;;3.45;2.03;;;0.80;99.90;;;;;;5098951;28;20023;-32
2024/01/19 01:24:32;;;;;;;3.55;1.88;;;0.80;99.90;;;;;;5098465;28;20031;-37
2024/01/19 01:26:57;;;;;;;2.88;1.52;;;0.80;99.90;;;;;;5099188;28;20032;-35
2024/01/19 01:29:23;;;;;;;1.92;1.58;;;0.70;99.90;;;;;;5100080;28;20026;-37
2024/01/19 01:31:51;;;;;;;2.38;1.40;;;0.80;99.90;;;;;;5098290;28;20459;-37
2024/01/19 01:34:17;;;;;;;1.55;1.42;;;0.80;99.90;;;;;;5099313;28;20074;-34
2024/01/19 01:36:42;;;;;;;2.28;1.35;;;0.80;99.90;;;;;;5099690;28;20561;-36
2024/01/19 01:39:11;;;;;;;3.83;1.08;;;0.80;99.90;;;;;;5097733;28;20397;-35
2024/01/19 01:41:37;;;;;;;1.23;1.10;;;0.70;99.90;;;;;;5099737;28;20023;-36
2024/01/19 01:44:04;;;;;;;1.50;1.20;;;0.70;99.90;;;;;;5098193;28;20059;-39
2024/01/19 01:46:30;;;;;;;1.15;1.05;;;0.70;99.90;;;;;;5098147;28;20028;-35
2024/01/19 01:48:56;;;;;;;2.60;1.17;;;0.70;99.90;;;;;;5099420;28;20027;-31
2024/01/19 01:51:21;;;;;;;1.45;1.13;;;0.70;99.90;;;;;;5100084;28;20024;-35
2024/01/19 01:53:47;;;;;;;1.45;0.90;;;0.60;99.90;;;;;;5099128;28;20126;-34
2024/01/19 01:56:13;;;;;;;1.17;0.98;;;0.70;99.90;;;;;;5099715;28;20032;-36
2024/01/19 01:58:39;;;;;;;1.45;0.85;;;0.60;99.90;;;;;;5098613;28;20035;-38
2024/01/19 02:01:05;;;;;;;1.23;0.90;;;0.60;99.90;;;;;;5099146;28;20035;-37
2024/01/19 02:03:31;;;;;;;1.00;0.80;;;0.60;99.90;;;;;;5099138;28;20508;-34
2024/01/19 02:05:57;;;;;;;1.00;0.90;;;0.60;99.90;;;;;;5098106;28;20046;-35
2024/01/19 02:08:22;;;;;;;2.53;0.98;;;0.60;99.90;;;;;;5097448;28;20047;-35
2024/01/19 02:10:48;;;;;;;1.48;0.90;;;0.60;99.90;;;;;;5099414;28;20043;-34
2024/01/19 02:13:14;;;;;;;0.90;0.90;;;0.60;99.90;;;;;;5092108;28;20036;-34
2024/01/19 02:15:40;;;;;;;1.10;1.00;;;0.50;99.90;;;;;;5101169;28;20028;-35
2024/01/19 02:18:06;;;;;;;1.30;0.90;;;0.50;99.90;;;;;;5102156;28;20031;-38
2024/01/19 02:20:31;;;;;;;1.83;1.55;;;0.40;99.90;;;;;;5102489;28;20345;-32
2024/01/19 02:22:59;;;;;;;1.10;1.00;;;0.50;99.90;;;;;;5102434;28;20750;-33
2024/01/19 02:25:24;;;;;;;1.10;1.00;;;0.40;99.90;;;;;;5100311;28;20080;-37
2024/01/19 02:27:53;;;;;;;1.08;0.90;;;0.40;99.90;;;;;;5102255;28;20027;-38
2024/01/19 02:30:19;;;;;;;1.05;0.95;;;0.40;99.90;;;;;;5102560;28;20089;-37
2024/01/19 02:32:45;;;;;;;1.02;1.02;;;0.30;99.90;;;;;;5103485;28;20039;-37
2024/01/19 02:35:10;;;;;;;1.67;1.00;;;0.40;99.90;;;;;;5100688;28;20058;-35
2024/01/19 02:37:36;;;;;;;0.93;0.93;;;0.30;99.90;;;;;;5102426;28;20157;-36
2024/01/19 02:40:11;;;;;;;1.35;0.82;;;0.30;99.90;;;;;;5102344;28;20143;-37
2024/01/19 02:42:36;;;;;;;1.10;1.10;;;0.30;99.90;;;;;;5101731;28;20046;-38
2024/01/19 02:45:02;;;;;;;0.70;0.70;;;0.20;99.90;;;;;;5101370;28;20028;-35
2024/01/19 02:47:28;;;;;;;1.13;1.02;;;0.20;99.90;;;;;;5102498;28;20023;-36
2024/01/19 02:49:53;;;;;;;0.90;0.90;;;0.20;99.90;;;;;;5101497;28;20520;-36
2024/01/19 02:52:19;;;;;;;1.75;1.00;;;0.20;99.90;;;;;;5101876;28;20024;-37
2024/01/19 02:54:45;;;;;;;1.15;1.10;;;0.20;99.90;;;;;;5101316;28;20019;-35
2024/01/19 02:57:10;;;;;;;1.90;1.20;;;0.20;99.90;;;;;;5101234;28;20063;-33
2024/01/19 02:59:36;;;;;;;2.17;1.20;;;0.10;99.90;;;;;;5101635;28;20019;-33
2024/01/19 03:02:02;;;;;;;1.25;1.00;;;0.10;99.90;;;;;;5101439;28;20015;-37
2024/01/19 03:04:28;;;;;;;1.48;1.10;;;0.10;99.90;;;;;;5100635;28;20655;-36
2024/01/19 03:06:55;;;;;;;1.05;0.95;;;0.00;99.90;;;;;;5101580;28;20020;-33
2024/01/19 03:09:20;;;;;;;0.98;0.98;;;0.10;99.90;;;;;;5101924;28;20067;-32
2024/01/19 03:11:47;;;;;;;1.27;1.10;;;0.00;99.90;;;;;;5100667;28;20131;-32
2024/01/19 03:14:12;;;;;;;2.13;1.20;;;0.00;99.90;;;;;;5102100;28;20034;-35
2024/01/19 03:16:44;;;;;;;1.50;1.40;;;0.00;99.90;;;;;;5100411;28;20922;-37
2024/01/19 03:19:10;;;;;;;1.95;1.30;;;0.00;99.90;;;;;;5101694;28;20047;-35
2024/01/19 03:21:35;;;;;;;1.40;1.30;;;0.00;99.90;;;;;;5101280;28;20658;-37
2024/01/19 03:24:01;;;;;;;2.85;1.75;;;0.00;99.90;;;;;;5100295;28;20455;-35
2024/01/19 03:26:28;;;;;;;1.90;1.80;;;0.00;99.90;;;;;;5101351;28;20016;-36
2024/01/19 03:28:53;;;;;;;3.70;1.60;;;-0.10;99.90;;;;;;5101676;28;20111;-37
2024/01/19 03:31:19;;;;;;;2.33;2.10;;;-0.10;99.90;;;;;;5099926;28;20020;-35
2024/01/19 03:33:44;;;;;;;1.90;1.80;;;-0.10;99.90;;;;;;5102511;28;20561;-35
2024/01/19 03:36:10;;;;;;;1.88;1.77;;;-0.10;99.90;;;;;;5100206;28;20062;-37
2024/01/19 03:38:36;;;;;;;2.30;1.98;;;-0.10;99.90;;;;;;5101372;28;20776;-36
2024/01/19 03:41:02;;;;;;;2.90;2.20;;;-0.10;99.90;;;;;;5101312;28;20061;-33
2024/01/19 03:43:27;;;;;;;2.00;1.85;;;-0.10;99.90;;;;;;5099967;28;20073;-35
2024/01/19 03:45:53;;;;;;;2.20;2.00;;;-0.20;99.90;;;;;;5100781;28;20027;-37
2024/01/19 03:48:19;;;;;;;2.50;2.30;;;-0.20;99.90;;;;;;5100854;28;20016;-35
2024/01/19 03:50:44;;;;;;;3.53;2.38;;;-0.20;99.90;;;;;;5102040;28;20019;-35
2024/01/19 03:53:10;;;;;;;3.70;2.70;;;-0.20;99.90;;;;;;5100218;28;20031;-36
2024/01/19 03:55:36;;;;;;;3.58;2.70;;;-0.20;99.90;;;;;;5101512;28;20087;-32
2024/01/19 03:58:01;;;;;;;3.25;2.30;;;-0.20;99.90;;;;;;5100753;28;20135;-31
2024/01/19 04:00:27;;;;;;;2.72;2.10;;;-0.10;99.90;;;;;;5097938;28;20018;-34
2024/01/19 04:02:52;;;;;;;2.75;2.50;;;-0.10;99.90;;;;;;5100550;28;20032;-35
2024/01/19 04:05:18;;;;;;;5.35;2.72;;;-0.10;99.90;;;;;;5100502;28;20091;-32
2024/01/19 04:07:44;;;;;;;4.45;2.58;;;-0.10;99.90;;;;;;5099984;28;20031;-33
2024/01/19 04:10:09;;;;;;;3.22;2.60;;;-0.10;99.90;;;;;;5099266;28;20050;-35
2024/01/19 04:12:35;;;;;;;5.13;3.13;;;-0.20;99.90;;;;;;5100452;28;20524;-36
2024/01/19 04:15:00;;;;;;;3.00;2.20;;;-0.20;99.90;;;;;;5099906;28;20078;-37
2024/01/19 04:17:26;;;;;;;3.72;3.00;;;-0.30;99.90;;;;;;5100726;28;20039;-34
2024/01/19 04:19:51;;;;;;;3.95;2.80;;;-0.30;99.90;;;;;;5099735;28;20032;-37
2024/01/19 04:22:17;;;;;;;3.90;2.90;;;-0.20;99.90;;;;;;5099997;28;20044;-37
2024/01/19 04:24:43;;;;;;;3.03;2.45;;;-0.30;99.90;;;;;;5100715;28;20051;-37
2024/01/19 04:27:09;;;;;;;2.47;2.28;;;-0.30;99.90;;;;;;5098039;28;20051;-37
2024/01/19 04:29:34;;;;;;;3.10;2.55;;;-0.20;99.90;;;;;;5096892;28;20035;-37
2024/01/19 04:32:00;;;;;;;3.20;2.80;;;-0.20;99.90;;;;;;5091295;28;20094;-32
2024/01/19 04:34:28;;;;;;;5.57;3.00;;;-0.20;99.90;;;;;;5099909;28;20023;-34
2024/01/19 04:36:54;;;;;;;3.70;3.15;;;-0.20;99.90;;;;;;5101174;28;20039;-36
2024/01/19 04:39:19;;;;;;;3.75;3.00;;;-0.20;99.90;;;;;;5100048;28;20038;-37
2024/01/19 04:41:45;;;;;;;4.82;3.95;;;-0.20;99.90;;;;;;5099962;28;20027;-35
2024/01/19 04:44:11;;;;;;;4.40;3.95;;;-0.10;99.90;;;;;;5099896;28;20027;-34
2024/01/19 04:46:36;;;;;;;4.20;3.05;;;-0.10;99.90;;;;;;5100031;28;20043;-34
2024/01/19 04:49:02;;;;;;;5.50;3.20;;;-0.10;99.90;;;;;;5098673;28;20153;-36
2024/01/19 04:51:27;;;;;;;3.90;3.10;;;-0.10;99.90;;;;;;5099979;28;20024;-34
2024/01/19 04:53:53;;;;;;;3.42;2.95;;;0.00;99.90;;;;;;5100042;28;20110;-34
2024/01/19 04:56:18;;;;;;;3.90;3.03;;;0.00;99.90;;;;;;5098351;28;20478;-32
2024/01/19 04:58:44;;;;;;;3.70;2.92;;;0.00;99.90;;;;;;5099190;28;20043;-34
2024/01/19 05:01:09;;;;;;;3.35;2.80;;;0.10;99.90;;;;;;5099258;28;20024;-33
2024/01/19 05:03:35;;;;;;;4.18;2.78;;;0.10;99.90;;;;;;5099266;28;20023;-32
2024/01/19 05:06:04;;;;;;;3.13;2.40;;;0.20;99.90;;;;;;5100000;28;20530;-35
2024/01/19 05:08:29;;;;;;;2.75;2.42;;;0.20;99.90;;;;;;5100182;28;20105;-30
2024/01/19 05:10:55;;;;;;;3.63;2.60;;;0.20;99.90;;;;;;5098508;28;20077;-39
2024/01/19 05:13:20;;;;;;;3.13;2.80;;;0.20;99.90;;;;;;5099194;28;20028;-33
2024/01/19 05:15:46;;;;;;;3.15;2.70;;;0.20;99.90;;;;;;5098011;28;20040;-35
2024/01/19 05:18:11;;;;;;;3.58;2.97;;;0.20;99.90;;;;;;5097951;28;20039;-31
2024/01/19 05:20:38;;;;;;;3.65;3.17;;;0.30;99.90;;;;;;5098871;28;20031;-37
2024/01/19 05:23:04;;;;;;;6.32;3.50;;;0.30;99.90;;;;;;5098315;28;20100;-31
2024/01/19 05:25:30;;;;;;;3.55;3.20;;;0.30;99.90;;;;;;5098796;28;20027;-31
2024/01/19 05:27:56;;;;;;;5.93;3.88;;;0.40;99.90;;;;;;5099609;28;20030;-34
2024/01/19 05:30:26;;;;;;;5.65;3.53;;;0.40;99.90;;;;;;5099130;28;20028;-36
2024/01/19 05:32:51;;;;;;;6.50;3.78;;;0.40;99.90;;;;;;5099796;28;20049;-35
2024/01/19 05:35:17;;;;;;;3.90;3.15;;;0.40;99.90;;;;;;5098863;28;20031;-36
2024/01/19 05:37:42;;;;;;;5.70;3.30;;;0.40;99.90;;;;;;5099525;28;20113;-33
2024/01/19 05:40:10;;;;;;;3.28;2.85;;;0.40;99.90;;;;;;5099102;28;20387;-34
2024/01/19 05:42:36;;;;;;;3.65;2.92;;;0.40;99.90;;;;;;5098613;28;20683;-34
2024/01/19 05:45:02;;;;;;;4.40;3.03;;;0.30;99.90;;;;;;5097818;28;20024;-33
2024/01/19 05:47:27;;;;;;;4.18;3.00;;;0.30;99.90;;;;;;5098472;28;20790;-35
2024/01/19 05:49:53;;;;;;;3.65;2.47;;;0.20;99.90;;;;;;5098176;28;20028;-34
2024/01/19 05:52:19;;;;;;;2.60;2.35;;;0.20;99.90;;;;;;5102392;28;20031;-32
2024/01/19 05:54:44;;;;;;;4.32;2.40;;;0.20;99.90;;;;;;5103740;28;20458;-32
2024/01/19 05:57:10;;;;;;;3.08;2.70;;;0.10;99.90;;;;;;5102299;28;20047;-33
2024/01/19 05:59:39;;;;;;;3.03;2.65;;;0.10;99.90;;;;;;5102306;28;20019;-37
2024/01/19 06:02:05;;;;;;;3.83;2.67;;;0.10;99.90;;;;;;5096665;28;20035;-35
2024/01/19 06:04:36;;;;;;;2.95;2.63;;;0.10;99.90;;;;;;5103587;28;20054;-35
2024/01/19 06:07:02;;;;;;;3.28;2.55;;;0.00;99.90;;;;;;5101840;28;20136;-33
2024/01/19 06:09:28;;;;;;;4.45;2.40;;;0.00;99.90;;;;;;5102513;28;20071;-31
2024/01/19 06:11:54;;;;;;;3.47;2.55;;;0.00;99.90;;;;;;5102959;28;20603;-36
2024/01/19 06:14:20;;;;;;;4.05;2.70;;;0.00;99.90;;;;;;5102106;28;20027;-35
2024/01/19 06:16:45;;;;;;;2.92;2.55;;;0.00;99.90;;;;;;5102114;28;20031;-36
2024/01/19 06:19:11;;;;;;;3.60;2.60;;;0.00;99.90;;;;;;5102992;28;20040;-35
2024/01/19 06:21:36;;;;;;;2.72;2.53;;;0.00;99.90;;;;;;5101366;28;20096;-35
2024/01/19 06:24:02;;;;;;;2.92;2.10;;;0.00;99.90;;;;;;5102234;28;20138;-34
2024/01/19 06:26:32;;;;;;;2.60;2.00;;;-0.10;99.90;;;;;;5101331;28;20026;-35
2024/01/19 06:28:58;;;;;;;2.20;1.90;;;-0.10;99.90;;;;;;5102642;28;20051;-35
2024/01/19 06:31:24;;;;;;;2.80;2.10;;;-0.10;99.90;;;;;;5100029;28;21465;-37
2024/01/19 06:33:49;;;;;;;3.10;1.83;;;-0.10;99.90;;;;;;5103549;28;20035;-36
2024/01/19 06:36:15;;;;;;;3.83;2.15;;;-0.10;99.90;;;;;;5100439;28;20027;-34
2024/01/19 06:38:41;;;;;;;2.20;2.00;;;-0.10;99.90;;;;;;5101925;28;20047;-33
2024/01/19 06:41:06;;;;;;;2.72;2.22;;;-0.10;99.90;;;;;;5101787;28;20031;-35
2024/01/19 06:43:32;;;;;;;3.67;2.72;;;-0.10;99.90;;;;;;5102094;28;20400;-33
2024/01/19 06:45:58;;;;;;;2.22;2.03;;;-0.10;99.90;;;;;;5100528;28;20530;-35
2024/01/19 06:48:23;;;;;;;2.28;2.08;;;-0.10;99.90;;;;;;5099939;28;20034;-32
2024/01/19 06:50:49;;;;;;;2.45;2.25;;;-0.10;99.90;;;;;;5101123;28;20433;-30
2024/01/19 06:53:15;;;;;;;2.47;2.20;;;0.00;99.90;;;;;;5101586;28;20402;-33
2024/01/19 06:55:41;;;;;;;3.08;2.60;;;0.00;99.90;;;;;;5101836;28;20031;-35
2024/01/19 06:58:06;;;;;;;2.97;2.60;;;0.00;99.90;;;;;;5098246;28;20032;-32
2024/01/19 07:00:32;;;;;;;7.85;3.17;;;0.10;99.90;;;;;;5102044;28;20124;-33
2024/01/19 07:02:59;;;;;;;4.30;3.67;;;0.10;99.90;;;;;;5100960;28;20023;-32
2024/01/19 07:05:25;;;;;;;3.25;2.95;;;0.10;99.90;;;;;;5099318;28;20030;-34
2024/01/19 07:07:51;;;;;;;3.63;3.30;;;0.20;99.90;;;;;;5094906;28;20394;-34
2024/01/19 07:10:16;;;;;;;7.18;3.78;;;0.20;99.90;;;;;;5099020;28;20505;-33
2024/01/19 07:12:42;;;;;;;4.88;3.55;;;0.20;99.90;;;;;;5100970;28;20111;-36
2024/01/19 07:15:08;;;;;;;4.47;3.88;;;0.20;99.90;;;;;;5098931;28;20035;-35
2024/01/19 07:17:34;;;;;;;5.03;4.13;;;0.20;99.90;;;;;;5099502;28;20050;-34
2024/01/19 07:20:00;;;;;;;4.90;4.07;;;0.20;99.90;;;;;;5098498;28;20030;-37
2024/01/19 07:22:29;;;;;;;6.20;4.32;;;0.30;99.90;;;;;;5090499;28;20111;-35
2024/01/19 07:24:54;;;;;;;5.30;4.38;;;0.30;99.90;;;;;;5100552;28;20047;-37
2024/01/19 07:27:20;;;;;;;6.90;4.78;;;0.40;99.90;;;;;;5100450;28;20556;-34
2024/01/19 07:29:46;;;;;;;5.63;4.43;;;0.40;99.90;;;;;;5101666;28;20028;-32
2024/01/19 07:32:11;;;;;;;5.38;3.92;;;0.40;99.90;;;;;;5100365;28;20489;-36
2024/01/19 07:34:37;;;;;;;5.25;3.92;;;0.50;99.90;;;;;;5100446;28;20148;-33
2024/01/19 07:37:03;;;;;;;4.60;3.58;;;0.50;99.90;;;;;;5100698;28;20040;-35
2024/01/19 07:39:29;;;;;;;4.38;3.97;;;0.50;99.90;;;;;;5097437;28;20027;-35
2024/01/19 07:41:55;;;;;;;5.20;4.05;;;0.50;99.90;;;;;;5100835;28;20031;-35
2024/01/19 07:44:21;;;;;;;4.47;3.88;;;0.50;99.90;;;;;;5099926;28;20031;-36
2024/01/19 07:46:47;;;;;;;5.88;4.10;;;0.50;99.90;;;;;;5101110;28;21404;-34
2024/01/19 07:49:13;;;;;;;6.45;4.25;;;0.40;99.90;;;;;;5096952;28;21343;-34
2024/01/19 07:51:38;;;;;;;4.50;3.58;;;0.40;99.90;;;;;;5099552;28;20562;-32
2024/01/19 07:54:04;;;;;;;7.35;4.40;;;0.40;99.90;;;;;;5097741;28;20031;-32
2024/01/19 07:56:30;;;;;;;7.03;4.63;;;0.40;99.90;;;;;;5098045;28;20042;-35
2024/01/19 07:58:55;;;;;;;4.68;4.18;;;0.40;99.90;;;;;;5096245;28;20070;-36
2024/01/19 08:01:21;;;;;;;7.60;4.60;;;0.40;99.90;;;;;;5094775;28;20088;-34
2024/01/19 08:03:47;;;;;;;7.80;4.75;;;0.40;99.90;;;;;;5099139;28;20034;-30
2024/01/19 08:06:13;;;;;;;8.07;4.93;;;0.40;99.90;;;;;;5095012;28;20043;-35
2024/01/19 08:08:39;;;;;;;5.22;4.47;;;0.30;99.90;;;;;;5096038;28;20039;-35
2024/01/19 08:11:04;;;;;;;5.90;5.00;;;0.40;99.90;;;;;;5088753;27;20125;-35
2024/01/19 08:13:30;;;;;;;8.23;5.50;;;0.40;99.90;;;;;;5094835;28;20146;-34
2024/01/19 08:15:55;;;;;;;5.97;5.38;;;0.40;99.90;;;;;;5099045;27;20165;-36
2024/01/19 08:18:21;;;;;;;6.38;5.53;;;0.40;99.90;;;;;;5083361;28;20781;-35
2024/01/19 08:20:46;;;;;;;7.28;4.68;;;0.40;99.90;;;;;;5082582;28;20114;-36
2024/01/19 08:23:12;;;;;;;7.78;5.00;;;0.50;99.90;;;;;;5098634;27;20050;-33
2024/01/19 08:25:37;;;;;;;5.30;4.57;;;0.40;99.90;;;;;;5101772;27;20084;-37
2024/01/19 08:28:03;;;;;;;7.35;4.85;;;0.40;99.90;;;;;;5097852;27;20027;-32
2024/01/19 08:30:29;;;;;;;5.45;4.65;;;0.40;99.90;;;;;;5097175;28;20425;-37
2024/01/19 08:32:55;;;;;;;7.05;4.63;;;0.40;99.90;;;;;;5097686;27;20059;-32
2024/01/19 08:35:20;;;;;;;4.97;4.53;;;0.40;99.90;;;;;;5095357;28;20027;-32
2024/01/19 08:37:46;;;;;;;6.70;4.60;;;0.40;99.90;;;;;;5099048;27;20781;-33
2024/01/19 08:40:12;;;;;;;6.40;5.25;;;0.40;99.90;;;;;;5098339;28;20031;-33
2024/01/19 08:42:39;;;;;;;5.97;4.85;;;0.50;99.90;;;;;;5099127;27;20034;-34
2024/01/19 08:45:07;;;;;;;5.72;4.57;;;0.50;99.90;;;;;;5091603;28;20026;-30
2024/01/19 08:47:33;;;;;;;7.78;5.13;;;0.50;99.90;;;;;;5097555;28;20572;-33
2024/01/19 08:49:59;;;;;;;6.57;5.07;;;0.50;99.90;;;;;;5099951;28;20028;-35
2024/01/19 08:52:29;;;;;;;6.82;6.00;;;0.50;99.90;;;;;;5098852;28;20028;-35
2024/01/19 08:54:55;;;;;;;6.57;5.18;;;0.60;99.90;;;;;;5090015;28;20383;-35
2024/01/19 08:57:20;;;;;;;6.75;5.38;;;0.60;99.90;;;;;;5096350;28;20040;-35
2024/01/19 08:59:46;;;;;;;11.85;5.50;;;0.60;99.90;;;;;;5096144;28;20024;-34
2024/01/19 09:02:11;;;;;;;7.78;5.88;;;0.70;99.90;;;;;;5088228;28;20146;-37
2024/01/19 09:04:38;;;;;;;9.15;6.40;;;0.80;99.90;;;;;;5086946;28;20069;-35
2024/01/19 09:07:04;;;;;;;12.18;6.45;;;0.80;99.90;;;;;;5100586;28;20070;-36
2024/01/19 09:09:29;;;;;;;9.20;6.30;;;0.90;99.90;;;;;;5097473;28;20103;-33
2024/01/19 09:11:56;;;;;;;7.93;5.75;;;0.90;99.90;;;;;;5098637;28;20023;-34
2024/01/19 09:14:22;;;;;;;8.32;5.57;;;0.90;99.90;;;;;;5100300;28;20156;-36
2024/01/19 09:16:48;;;;;;;8.23;5.25;;;0.90;99.90;;;;;;5099113;28;20034;-37
2024/01/19 09:19:14;;;;;;;5.85;5.25;;;0.90;99.90;;;;;;5094497;28;20432;-34
2024/01/19 09:21:40;;;;;;;5.22;4.57;;;0.90;99.90;;;;;;5097199;28;20032;-35
2024/01/19 09:24:09;;;;;;;6.82;4.80;;;0.90;99.90;;;;;;5097589;28;20051;-37
2024/01/19 09:26:35;;;;;;;6.90;5.43;;;0.90;99.90;;;;;;5102632;28;20092;-35
2024/01/19 09:29:08;;;;;;;9.70;5.65;;;0.90;99.90;;;;;;5103230;28;20040;-35
2024/01/19 09:31:43;;;;;;;8.88;5.75;;;0.90;99.90;;;;;;5102705;28;20073;-32
2024/01/19 09:34:09;;;;;;;9.82;6.65;;;0.90;99.90;;;;;;5103098;28;20191;-34
2024/01/19 09:36:35;;;;;;;11.85;9.15;;;1.00;99.90;;;;;;5102036;28;20024;-34
2024/01/19 09:39:01;;;;;;;8.45;5.90;;;1.00;99.90;;;;;;5103727;28;20047;-34
2024/01/19 09:41:48;;;;;;;12.02;7.65;;;1.00;99.90;;;;;;5101542;28;20024;-33
2024/01/19 09:44:17;;;;;;;10.52;6.13;;;1.00;99.90;;;;;;5097052;28;20092;-31
2024/01/19 09:46:51;;;;;;;12.10;8.50;;;1.00;99.90;;;;;;5102803;28;20065;-34
2024/01/19 09:49:39;;;;;;;12.20;7.60;;;1.10;99.90;;;;;;5101906;28;20040;-35
2024/01/19 09:52:41;;;;;;;9.85;7.20;;;1.10;99.90;;;;;;5087883;27;20092;-31
2024/01/19 09:55:09;;;;;;;10.13;7.28;;;1.10;99.90;;;;;;5102014;28;20023;-35
2024/01/19 09:57:37;;;;;;;10.48;7.55;;;1.20;99.90;;;;;;5100241;28;20032;-31
2024/01/19 10:00:03;;;;;;;11.52;7.65;;;1.20;99.90;;;;;;5103223;28;20051;-32
2024/01/19 10:02:31;;;;;;;13.13;8.55;;;1.20;99.90;;;;;;5103020;28;20038;-36
2024/01/19 10:04:59;;;;;;;12.25;7.18;;;1.30;99.90;;;;;;5099746;28;20051;-35
2024/01/19 10:07:25;;;;;;;12.15;7.75;;;1.30;99.90;;;;;;5101553;28;20047;-36
2024/01/19 10:09:51;;;;;;;10.45;7.13;;;1.40;99.90;;;;;;5102265;28;20079;-34
2024/01/19 10:12:22;;;;;;;9.30;6.90;;;1.40;99.90;;;;;;5101585;28;20047;-36
2024/01/19 10:14:47;;;;;;;10.25;6.88;;;1.40;99.90;;;;;;5102969;28;20023;-34
2024/01/19 10:17:14;;;;;;;8.80;7.00;;;1.50;99.90;;;;;;5102787;28;20039;-31
2024/01/19 10:19:41;;;;;;;8.35;7.20;;;1.60;99.90;;;;;;5100974;28;20128;-35
2024/01/19 10:22:27;;;;;;;9.48;7.15;;;1.60;99.90;;;;;;5102301;28;20614;-36
2024/01/19 10:25:10;;;;;;;9.63;6.72;;;1.60;99.90;;;;;;5090839;28;20028;-37
2024/01/19 10:27:46;;;;;;;;;;;1.60;99.90;;;;;;5101740;28;20035;-35
2024/01/19 10:30:24;;;;;;;6.90;5.50;;;1.60;99.90;;;;;;5101062;28;19911;-36
2024/01/19 10:32:51;;;;;;;7.97;5.68;;;1.60;99.90;;;;;;5101192;28;20744;-36
2024/01/19 10:35:22;;;;;;;7.85;4.88;;;1.60;99.90;;;;;;5102931;28;20031;-38
2024/01/19 10:37:49;;;;;;;6.28;5.30;;;1.60;99.90;;;;;;5101241;28;20035;-35
2024/01/19 10:40:21;;;;;;;7.28;5.35;;;1.50;99.90;;;;;;5101267;28;20066;-36
2024/01/19 10:42:56;;;;;;;7.22;5.50;;;1.50;99.90;;;;;;5102112;28;20439;-38
2024/01/19 10:45:25;;;;;;;4.88;4.22;;;1.50;99.90;;;;;;5102107;28;20026;-37
2024/01/19 10:47:53;;;;;;;6.15;5.32;;;1.50;99.90;;;;;;5103529;27;20093;-33
2024/01/19 10:50:20;;;;;;;6.72;5.25;;;1.50;99.90;;;;;;5100827;28;20292;-36
2024/01/19 10:52:53;;;;;;;7.05;5.05;;;1.50;99.90;;;;;;5102909;27;20051;-35
2024/01/19 10:55:20;;;;;;;6.72;5.05;;;1.50;99.90;;;;;;5101824;28;20054;-35
2024/01/19 10:57:51;;;;;;;8.07;5.18;;;1.60;99.90;;;;;;5100932;28;20545;-36
2024/01/19 11:00:26;;;;;;;8.02;4.75;;;1.60;99.90;;;;;;5093141;28;20035;-34
2024/01/19 11:02:56;;;;;;;5.63;4.82;;;1.60;99.90;;;;;;5097058;28;20052;-33
2024/01/19 11:05:23;;;;;;;7.30;5.60;;;1.70;99.90;;;;;;5101497;28;20028;-36
2024/01/19 11:07:51;;;;;;;7.82;4.88;;;1.70;99.90;;;;;;5098363;28;20055;-31
2024/01/19 11:10:17;;;;;;;9.30;4.60;;;1.70;99.90;;;;;;5101285;28;20043;-36
2024/01/19 11:12:47;;;;;;;6.95;5.13;;;1.80;99.90;;;;;;5098761;28;20066;-32
2024/01/19 11:15:20;;;;;;;8.68;5.05;;;1.90;99.90;;;;;;5081835;28;20048;-34
2024/01/19 11:17:46;;;;;;;;;;;2.00;99.90;;;;;;5099038;28;20315;-33
2024/01/19 11:20:12;;;;;;;6.80;4.97;;;2.10;99.90;;;;;;5100288;28;20104;-37
2024/01/19 11:22:39;;;;;;;5.63;4.65;;;2.20;99.90;;;;;;5100049;28;20019;-32
2024/01/19 11:25:10;;;;;;;6.70;4.78;;;2.20;99.90;;;;;;5100661;28;20035;-33
2024/01/19 11:27:46;;;;;;;5.22;4.07;;;2.30;99.90;;;;;;5100775;28;20019;-32
2024/01/19 11:30:49;;;;;;;4.35;3.55;;;2.30;99.90;;;;;;5100399;28;20065;-33
2024/01/19 11:33:18;;;;;;;4.75;4.10;;;2.30;99.90;;;;;;5068606;28;20031;-35
2024/01/19 11:35:51;;;;;;;5.38;4.25;;;2.30;99.90;;;;;;5100394;28;20110;-35
2024/01/19 11:38:38;;;;;;;6.30;4.53;;;2.30;99.90;;;;;;5100926;28;20032;-35
2024/01/19 11:41:04;;;;;;;4.78;3.40;;;2.40;99.90;;;;;;5100870;28;20039;-37
2024/01/19 11:43:43;;;;;;;3.40;3.10;;;2.40;99.90;;;;;;5098935;28;20039;-35
2024/01/19 11:46:10;;;;;;;5.05;4.00;;;2.50;99.90;;;;;;5100393;28;20421;-34
2024/01/19 11:48:44;;;;;;;4.57;3.60;;;2.60;99.90;;;;;;5101807;28;20023;-35
2024/01/19 11:51:31;;;;;;;5.03;3.55;;;2.70;99.90;;;;;;5079507;28;20028;-36
2024/01/19 11:53:58;;;;;;;5.30;3.65;;;2.80;99.90;;;;;;5099990;27;20100;-36
2024/01/19 11:56:24;;;;;;;4.03;3.65;;;2.90;99.90;;;;;;5100898;28;20104;-33
2024/01/19 11:58:51;;;;;;;4.85;3.40;;;3.00;99.90;;;;;;5100725;28;20118;-37
2024/01/19 12:01:16;;;;;;;3.55;2.92;;;3.00;99.90;;;;;;5098881;28;20019;-43
2024/01/19 12:03:43;;;;;;;5.10;3.47;;;3.10;99.90;;;;;;5095494;28;20034;-35
2024/01/19 12:06:12;;;;;;;4.97;3.00;;;3.10;99.90;;;;;;5098729;28;20365;-37
2024/01/19 12:08:37;;;;;;;4.45;3.25;;;3.10;99.90;;;;;;5098348;28;20028;-36
2024/01/19 12:11:05;;;;;;;4.35;3.58;;;3.10;99.90;;;;;;5096039;28;20186;-35
2024/01/19 12:13:33;;;;;;;5.20;3.72;;;3.10;99.90;;;;;;5107344;27;20748;-35
2024/01/19 12:16:00;;;;;;;4.13;3.55;;;3.10;99.90;;;;;;5097774;28;20389;-34
2024/01/19 12:18:27;;;;;;;5.78;3.78;;;3.00;99.90;;;;;;5090570;28;20036;-35
2024/01/19 12:20:56;;;;;;;6.10;4.03;;;3.10;99.90;;;;;;5100293;28;20106;-36
2024/01/19 12:23:23;;;;;;;4.20;3.65;;;3.10;99.90;;;;;;5098821;27;20028;-34
2024/01/19 12:25:57;;;;;;;6.10;3.97;;;3.10;99.90;;;;;;5093066;28;20473;-36
2024/01/19 12:28:23;;;;;;;4.88;4.07;;;3.10;99.90;;;;;;5089234;28;20513;-33
2024/01/19 12:30:51;;;;;;;4.38;3.92;;;3.10;99.90;;;;;;5096794;28;20035;-36
2024/01/19 12:33:19;;;;;;;4.20;3.80;;;3.20;99.90;;;;;;5091342;28;20034;-34
2024/01/19 12:35:46;;;;;;;6.38;4.05;;;3.20;99.90;;;;;;5099925;28;20028;-33
2024/01/19 12:38:14;;;;;;;6.55;3.90;;;3.20;99.90;;;;;;5095373;28;20355;-35
2024/01/19 12:40:41;;;;;;;6.15;4.03;;;3.20;99.90;;;;;;5097340;27;20088;-36
2024/01/19 12:43:07;;;;;;;4.70;3.65;;;3.30;99.90;;;;;;5100175;28;20107;-36
2024/01/19 12:45:34;;;;;;;7.13;3.88;;;3.30;99.90;;;;;;5098986;28;20035;-35
2024/01/19 12:48:00;;;;;;;4.50;3.50;;;3.30;99.90;;;;;;5099221;28;20530;-37
2024/01/19 12:50:30;;;;;;;6.40;3.58;;;3.40;99.90;;;;;;5099643;28;20114;-34
2024/01/19 12:52:56;;;;;;;7.13;4.20;;;3.40;99.90;;;;;;5096560;28;20100;-36
2024/01/19 12:55:32;;;;;;;4.32;3.83;;;3.50;99.90;;;;;;5099297;28;20554;-34